Time;durP1;ratioP1;P1;durP2;ratioP2;P2;SDS_P1;SDS_P2;PMS_P1;PMS_P2;Temp;Humidity;BMP_temperature;BMP_pressure;BME280_temperature;BME280_humidity;BME280_pressure;Samples;Min_cycle;Max_cycle;Signal;HPM_P1;HPM_P2
2021/10/04 00:01:12;;;;;;;3.78;1.70;;;;;;;12.36;100.00;101038.63;5092718;28;20126;-61
2021/10/04 00:03:39;;;;;;;5.07;1.52;;;;;;;12.32;100.00;101024.78;5093151;28;20072;-59
2021/10/04 00:06:06;;;;;;;7.73;2.00;;;;;;;12.30;100.00;101026.84;5092838;28;20130;-60
2021/10/04 00:08:31;;;;;;;7.37;1.53;;;;;;;12.30;100.00;101035.69;5092565;28;20769;-56
2021/10/04 00:10:57;;;;;;;2.78;1.40;;;;;;;12.31;100.00;101049.94;5092684;28;20276;-61
2021/10/04 00:13:24;;;;;;;8.10;2.23;;;;;;;12.33;100.00;101047.88;5092566;28;20115;-62
2021/10/04 00:15:50;;;;;;;4.93;2.38;;;;;;;12.31;100.00;101052.63;5092550;28;20295;-61
2021/10/04 00:18:16;;;;;;;8.50;3.90;;;;;;;12.37;100.00;101065.22;5074173;28;20048;-60
2021/10/04 00:20:42;;;;;;;12.88;5.57;;;;;;;12.38;100.00;101068.72;5092632;28;20036;-60
2021/10/04 00:23:08;;;;;;;8.40;4.05;;;;;;;12.39;100.00;101071.19;5092791;28;20433;-60
2021/10/04 00:25:34;;;;;;;;;;;;;;;12.40;100.00;101070.16;5092935;28;20111;-58
2021/10/04 00:28:00;;;;;;;8.63;2.90;;;;;;;12.46;100.00;101081.94;5074262;28;19999;-60
2021/10/04 00:30:26;;;;;;;9.48;3.83;;;;;;;12.46;100.00;101085.47;5093062;28;20040;-60
2021/10/04 00:32:52;;;;;;;8.47;3.80;;;;;;;12.45;100.00;101099.06;5074249;28;20119;-61
2021/10/04 00:35:20;;;;;;;11.55;4.72;;;;;;;12.43;100.00;101091.22;5092461;28;20283;-61
2021/10/04 00:37:46;;;;;;;12.30;5.33;;;;;;;12.48;100.00;101104.88;5092180;28;20046;-60
2021/10/04 00:40:16;;;;;;;11.75;6.07;;;;;;;12.44;100.00;101113.53;5092656;28;20252;-60
2021/10/04 00:42:42;;;;;;;10.87;4.03;;;;;;;12.44;100.00;101117.00;5074501;28;20444;-60
2021/10/04 00:45:09;;;;;;;6.22;2.55;;;;;;;12.50;100.00;101106.53;5092363;28;20267;-60
2021/10/04 00:47:35;;;;;;;8.97;3.27;;;;;;;12.52;100.00;101099.91;5092498;28;20050;-61
2021/10/04 00:50:03;;;;;;;5.85;2.60;;;;;;;12.53;100.00;101108.81;5094580;28;20735;-61
2021/10/04 00:52:28;;;;;;;8.93;2.27;;;;;;;12.52;100.00;101102.59;5095942;28;20036;-61
2021/10/04 00:54:54;;;;;;;7.47;2.72;;;;;;;12.52;100.00;101102.59;5095732;28;20798;-60
2021/10/04 00:57:20;;;;;;;8.37;2.70;;;;;;;12.53;100.00;101095.38;5078201;28;20043;-60
2021/10/04 00:59:45;;;;;;;4.40;1.90;;;;;;;12.53;100.00;101116.84;5095684;28;20265;-61
2021/10/04 01:02:11;;;;;;;7.67;1.97;;;;;;;12.52;100.00;101115.19;5095788;28;20047;-61
2021/10/04 01:04:37;;;;;;;3.53;1.48;;;;;;;12.51;100.00;101122.41;5077858;28;20276;-61
2021/10/04 01:07:02;;;;;;;4.82;2.35;;;;;;;12.53;100.00;101119.53;5095621;28;20073;-60
2021/10/04 01:09:28;;;;;;;7.18;1.98;;;;;;;12.49;100.00;101132.50;5096005;28;20047;-61
2021/10/04 01:11:56;;;;;;;6.88;2.25;;;;;;;12.48;100.00;101131.69;5095797;28;20047;-61
2021/10/04 01:14:23;;;;;;;10.13;2.23;;;;;;;12.48;100.00;101142.44;5095737;28;20032;-65
2021/10/04 01:16:50;;;;;;;5.80;2.07;;;;;;;12.48;100.00;101150.47;5076833;28;20305;-60
2021/10/04 01:19:15;;;;;;;6.93;2.50;;;;;;;12.51;100.00;101145.75;5095792;28;20280;-60
2021/10/04 01:21:41;;;;;;;4.35;1.88;;;;;;;12.50;100.00;101141.41;5095553;28;20268;-60
2021/10/04 01:24:08;;;;;;;7.13;2.28;;;;;;;12.53;100.00;101138.31;5095661;28;20040;-60
2021/10/04 01:26:33;;;;;;;7.40;3.97;;;;;;;12.44;100.00;101135.78;5095398;28;20137;-61
2021/10/04 01:28:59;;;;;;;10.30;3.67;;;;;;;12.45;100.00;101132.06;5077049;28;20299;-60
2021/10/04 01:31:25;;;;;;;13.70;4.68;;;;;;;12.43;100.00;101120.72;5077629;28;20043;-59
2021/10/04 01:33:53;;;;;;;10.07;5.38;;;;;;;12.42;100.00;101121.75;5094883;28;20044;-60
2021/10/04 01:36:20;;;;;;;12.50;4.87;;;;;;;12.43;100.00;101128.78;5095475;28;20028;-60
2021/10/04 01:38:46;;;;;;;13.87;4.87;;;;;;;12.46;100.00;101135.59;5094852;28;20279;-60
2021/10/04 01:41:12;;;;;;;10.68;3.60;;;;;;;12.38;100.00;101128.56;5077492;28;20277;-61
2021/10/04 01:43:38;;;;;;;5.72;2.58;;;;;;;12.39;100.00;101138.25;5095468;28;20036;-61
2021/10/04 01:46:04;;;;;;;;;;;;;;;12.43;100.00;101136.81;5095553;28;20036;-61
2021/10/04 01:48:29;;;;;;;3.83;1.90;;;;;;;12.43;100.00;101150.22;5091403;28;19926;-60
2021/10/04 01:50:55;;;;;;;8.80;1.50;;;;;;;12.38;100.00;101146.50;5079509;28;20475;-61
2021/10/04 01:53:20;;;;;;;5.72;2.13;;;;;;;12.38;100.00;101138.47;5076622;28;20063;-61
2021/10/04 01:55:46;;;;;;;6.78;1.60;;;;;;;12.35;100.00;101137.00;5094689;28;20040;-60
2021/10/04 01:58:11;;;;;;;7.53;1.85;;;;;;;12.32;100.00;101143.59;5095186;28;20121;-62
2021/10/04 02:00:38;;;;;;;6.33;1.70;;;;;;;12.20;100.00;101134.47;5086295;28;20074;-61
2021/10/04 02:03:04;;;;;;;;;;;;;;;12.20;100.00;101145.19;5074809;28;20261;-61
2021/10/04 02:05:31;;;;;;;7.83;2.10;;;;;;;11.99;100.00;101152.25;5056813;28;19908;-60
2021/10/04 02:07:57;;;;;;;4.07;2.00;;;;;;;11.96;100.00;101151.81;5074217;28;20476;-59
2021/10/04 02:10:27;;;;;;;4.88;2.22;;;;;;;11.92;100.00;101151.41;5056485;28;20261;-61
2021/10/04 02:12:54;;;;;;;8.53;2.40;;;;;;;13.07;100.00;101154.53;5073999;28;20036;-60
2021/10/04 02:15:21;;;;;;;9.73;3.00;;;;;;;11.97;100.00;101146.28;5074684;28;20288;-61
2021/10/04 02:17:47;;;;;;;8.48;2.03;;;;;;;11.82;100.00;101154.44;5074323;28;20343;-58
2021/10/04 02:20:20;;;;;;;7.47;2.22;;;;;;;11.77;100.00;101156.88;5074135;28;20042;-61
2021/10/04 02:22:46;;;;;;;4.40;1.77;;;;;;;12.49;100.00;101151.28;5074154;28;20035;-60
2021/10/04 02:25:13;;;;;;;8.98;1.90;;;;;;;11.68;100.00;101150.00;5056696;28;20261;-60
2021/10/04 02:27:38;;;;;;;;;;;;;;;12.83;100.00;101144.19;5074560;28;20149;-61
2021/10/04 02:30:10;;;;;;;4.47;1.80;;;;;;;11.89;100.00;101144.56;5073689;28;20465;-60
2021/10/04 02:32:35;;;;;;;3.40;1.87;;;;;;;11.57;100.00;101136.13;5073890;28;20034;-61
2021/10/04 02:35:01;;;;;;;10.07;2.03;;;;;;;11.60;100.00;101137.56;5055716;28;20775;-60
2021/10/04 02:37:26;;;;;;;10.27;2.63;;;;;;;11.44;100.00;101136.00;5085795;28;20052;-60
2021/10/04 02:39:52;;;;;;;6.32;2.03;;;;;;;11.55;100.00;101140.84;5092726;28;20032;-60
2021/10/04 02:42:17;;;;;;;4.53;2.07;;;;;;;11.48;100.00;101140.78;5093933;28;20047;-60
2021/10/04 02:44:43;;;;;;;3.00;1.83;;;;;;;11.55;100.00;101142.69;5093881;28;20349;-61
2021/10/04 02:47:08;;;;;;;5.07;2.03;;;;;;;11.44;100.00;101139.53;5093764;28;20082;-61
2021/10/04 02:49:34;;;;;;;10.45;2.10;;;;;;;11.40;100.00;101134.75;5075772;28;20036;-61
2021/10/04 02:51:59;;;;;;;8.93;2.30;;;;;;;11.40;100.00;101142.78;5093801;28;20043;-61
2021/10/04 02:54:25;;;;;;;7.97;3.40;;;;;;;11.35;100.00;101140.66;5094017;28;20044;-61
2021/10/04 02:56:50;;;;;;;4.73;2.50;;;;;;;11.36;100.00;101139.66;5093926;28;20310;-61
2021/10/04 02:59:16;;;;;;;6.90;2.20;;;;;;;11.35;100.00;101138.00;5093897;28;20082;-61
2021/10/04 03:01:42;;;;;;;4.27;2.20;;;;;;;11.40;100.00;101161.53;5075588;28;20460;-60
2021/10/04 03:04:08;;;;;;;13.57;2.75;;;;;;;11.38;100.00;101153.66;5093279;28;20040;-60
2021/10/04 03:06:33;;;;;;;4.38;1.83;;;;;;;11.38;100.00;101151.00;5075630;28;20062;-60
2021/10/04 03:08:59;;;;;;;11.23;2.40;;;;;;;11.39;100.00;101152.66;5093549;28;20538;-59
2021/10/04 03:11:24;;;;;;;9.00;2.20;;;;;;;11.37;100.00;101146.66;5092939;28;20089;-61
2021/10/04 03:13:50;;;;;;;7.97;2.40;;;;;;;12.40;100.00;101156.00;5093437;28;20511;-60
2021/10/04 03:16:15;;;;;;;11.03;2.70;;;;;;;12.85;100.00;101163.59;5093437;28;20299;-60
2021/10/04 03:18:41;;;;;;;6.22;2.65;;;;;;;12.99;100.00;101164.44;5075426;28;20397;-60
2021/10/04 03:21:06;;;;;;;8.90;3.57;;;;;;;13.03;100.00;101154.09;5093396;28;20040;-60
2021/10/04 03:23:31;;;;;;;4.60;2.30;;;;;;;12.95;100.00;101162.38;5093888;28;20051;-60
2021/10/04 03:25:57;;;;;;;5.37;2.17;;;;;;;12.99;100.00;101151.03;5090848;28;20026;-61
2021/10/04 03:28:23;;;;;;;4.70;1.90;;;;;;;12.93;100.00;101165.28;5082043;28;20078;-61
2021/10/04 03:30:48;;;;;;;6.85;2.47;;;;;;;12.88;100.00;101184.66;5072922;28;20268;-60
2021/10/04 03:33:14;;;;;;;5.85;2.42;;;;;;;13.03;100.00;101171.06;5054860;28;20396;-60
2021/10/04 03:35:39;;;;;;;9.38;2.40;;;;;;;12.96;100.00;101178.28;5073123;28;20380;-60
2021/10/04 03:38:05;;;;;;;4.45;2.10;;;;;;;13.08;100.00;101177.66;5072947;28;20063;-61
2021/10/04 03:40:31;;;;;;;6.78;2.65;;;;;;;11.84;100.00;101179.19;5073097;28;20481;-61
2021/10/04 03:42:56;;;;;;;6.63;2.05;;;;;;;11.58;100.00;101183.31;5073000;28;20230;-60
2021/10/04 03:45:22;;;;;;;6.82;2.40;;;;;;;11.60;100.00;101173.22;5055327;28;20427;-60
2021/10/04 03:47:47;;;;;;;10.17;2.50;;;;;;;11.55;100.00;101174.81;5075525;28;20401;-61
2021/10/04 03:50:15;;;;;;;5.17;2.37;;;;;;;11.57;100.00;101180.81;5060964;28;20268;-61
2021/10/04 03:52:41;;;;;;;6.10;2.10;;;;;;;11.56;100.00;101198.75;5077694;28;20028;-61
2021/10/04 03:55:08;;;;;;;7.28;2.00;;;;;;;11.59;100.00;101208.22;5092614;28;20331;-63
2021/10/04 03:57:34;;;;;;;6.90;2.10;;;;;;;11.59;100.00;101197.53;5074563;28;20400;-62
2021/10/04 03:59:59;;;;;;;13.13;2.17;;;;;;;11.71;100.00;101208.53;5086482;28;20273;-60
2021/10/04 04:02:25;;;;;;;7.37;1.83;;;;;;;11.61;100.00;101225.78;5055580;28;20044;-61
2021/10/04 04:04:50;;;;;;;14.13;2.03;;;;;;;11.59;100.00;101219.78;5089534;28;20269;-60
2021/10/04 04:07:16;;;;;;;5.20;2.07;;;;;;;11.51;100.00;101222.59;5059851;28;20487;-62
2021/10/04 04:09:41;;;;;;;7.93;2.58;;;;;;;11.55;100.00;101228.41;5054780;28;20258;-61
2021/10/04 04:12:07;;;;;;;20.83;3.08;;;;;;;11.56;100.00;101224.69;5068340;28;20044;-61
2021/10/04 04:14:33;;;;;;;3.97;1.95;;;;;;;11.52;100.00;101228.78;5092975;28;20472;-60
2021/10/04 04:16:58;;;;;;;7.23;2.17;;;;;;;11.58;100.00;101239.56;5092718;28;20036;-61
2021/10/04 04:19:24;;;;;;;11.40;2.67;;;;;;;11.54;100.00;101238.28;5092292;28;20461;-60
2021/10/04 04:21:49;;;;;;;9.57;1.87;;;;;;;11.57;100.00;101234.38;5075069;28;20072;-60
2021/10/04 04:24:17;;;;;;;6.10;2.10;;;;;;;11.55;100.00;101245.31;5074907;28;20039;-60
2021/10/04 04:26:46;;;;;;;6.60;2.63;;;;;;;11.59;100.00;101238.53;5076194;28;20036;-61
2021/10/04 04:29:13;;;;;;;3.80;2.17;;;;;;;11.65;100.00;101231.59;5075970;28;20285;-60
2021/10/04 04:31:38;;;;;;;;;;;;;;;11.51;100.00;101233.28;5076413;28;20749;-61
2021/10/04 04:34:04;;;;;;;9.47;2.30;;;;;;;11.52;100.00;101224.25;5057843;28;20105;-61
2021/10/04 04:36:29;;;;;;;3.75;1.80;;;;;;;11.53;100.00;101217.03;5092580;28;20047;-61
2021/10/04 04:38:55;;;;;;;13.03;2.43;;;;;;;11.59;100.00;101233.19;5096376;28;20048;-61
2021/10/04 04:41:20;;;;;;;9.77;2.33;;;;;;;11.50;100.00;101228.97;5078272;28;20040;-60
2021/10/04 04:43:46;;;;;;;7.83;2.67;;;;;;;11.48;100.00;101241.72;5096275;28;20296;-60
2021/10/04 04:46:11;;;;;;;6.87;2.17;;;;;;;11.54;100.00;101238.28;5095859;28;20043;-61
2021/10/04 04:48:37;;;;;;;6.73;2.47;;;;;;;11.57;100.00;101247.78;5096197;28;20703;-61
2021/10/04 04:51:03;;;;;;;4.18;2.38;;;;;;;11.53;100.00;101247.31;5096243;28;20103;-60
2021/10/04 04:53:28;;;;;;;8.98;2.28;;;;;;;12.55;100.00;101252.44;5077727;28;20048;-60
2021/10/04 04:55:54;;;;;;;8.67;2.13;;;;;;;11.65;100.00;101262.91;5096336;28;20035;-60
2021/10/04 04:58:19;;;;;;;5.50;2.33;;;;;;;11.59;100.00;101259.97;5077952;28;20729;-61
2021/10/04 05:00:45;;;;;;;5.10;1.95;;;;;;;11.62;100.00;101258.75;5095948;28;20111;-59
2021/10/04 05:03:10;;;;;;;4.47;1.90;;;;;;;11.63;100.00;101273.78;5095570;28;20029;-60
2021/10/04 05:05:36;;;;;;;6.60;2.40;;;;;;;11.60;100.00;101263.47;5090483;28;20279;-61
2021/10/04 05:08:02;;;;;;;7.03;2.10;;;;;;;11.61;100.00;101263.28;5075477;28;20033;-60
2021/10/04 05:10:27;;;;;;;8.10;1.65;;;;;;;11.62;100.00;101256.91;5075424;28;20442;-60
2021/10/04 05:12:53;;;;;;;9.63;2.03;;;;;;;11.70;100.00;101268.50;5075181;28;20538;-62
2021/10/04 05:15:18;;;;;;;6.70;1.90;;;;;;;11.69;100.00;101282.91;5075527;28;20289;-61
2021/10/04 05:17:44;;;;;;;5.93;2.00;;;;;;;11.64;100.00;101274.63;5057623;28;20767;-61
2021/10/04 05:20:11;;;;;;;9.40;1.90;;;;;;;11.62;100.00;101269.47;5074669;28;20702;-61
2021/10/04 05:22:36;;;;;;;7.97;1.90;;;;;;;11.58;100.00;101270.88;5074880;28;20040;-60
2021/10/04 05:25:07;;;;;;;5.00;2.03;;;;;;;11.71;100.00;101275.53;5075097;28;20622;-59
2021/10/04 05:27:32;;;;;;;4.57;1.90;;;;;;;11.69;100.00;101282.91;5075043;28;20036;-60
2021/10/04 05:29:58;;;;;;;6.40;2.13;;;;;;;11.62;100.00;101275.66;5083163;28;20259;-60
2021/10/04 05:32:24;;;;;;;7.03;1.90;;;;;;;11.70;100.00;101274.72;5083100;28;20510;-60
2021/10/04 05:34:50;;;;;;;6.22;2.33;;;;;;;11.67;100.00;101283.13;5083063;28;20041;-60
2021/10/04 05:37:15;;;;;;;4.25;1.90;;;;;;;11.62;100.00;101282.84;5089381;28;20158;-60
2021/10/04 05:39:41;;;;;;;4.47;1.70;;;;;;;11.62;100.00;101299.78;5095152;28;20043;-61
2021/10/04 05:42:07;;;;;;;11.20;2.50;;;;;;;11.61;100.00;101297.28;5089493;28;20036;-61
2021/10/04 05:44:33;;;;;;;10.73;1.98;;;;;;;11.64;100.00;101285.34;5095131;28;20048;-61
2021/10/04 05:46:58;;;;;;;3.92;1.83;;;;;;;11.59;100.00;101288.59;5086625;28;20052;-61
2021/10/04 05:49:23;;;;;;;6.87;1.60;;;;;;;11.57;100.00;101279.94;5065410;28;20024;-60
2021/10/04 05:51:49;;;;;;;6.43;2.00;;;;;;;11.53;100.00;101287.50;5065012;28;20043;-61
2021/10/04 05:54:14;;;;;;;10.60;2.13;;;;;;;11.62;100.00;101291.72;5056772;28;20068;-61
2021/10/04 05:56:40;;;;;;;9.80;1.83;;;;;;;11.59;100.00;101293.94;5062329;28;20094;-60
2021/10/04 05:59:06;;;;;;;7.13;1.85;;;;;;;11.66;100.00;101299.38;5074917;28;20361;-62
2021/10/04 06:01:32;;;;;;;6.68;1.63;;;;;;;11.78;100.00;101313.94;5079642;28;20033;-62
2021/10/04 06:03:57;;;;;;;11.13;2.17;;;;;;;11.65;100.00;101321.84;5074653;28;20421;-61
2021/10/04 06:06:23;;;;;;;4.10;1.90;;;;;;;11.67;100.00;101306.41;5061581;28;20068;-61
2021/10/04 06:08:48;;;;;;;9.97;2.13;;;;;;;11.68;100.00;101313.41;5074182;28;20469;-61
2021/10/04 06:11:14;;;;;;;5.90;2.00;;;;;;;11.68;100.00;101321.44;5081788;28;20044;-60
2021/10/04 06:13:39;;;;;;;8.25;1.60;;;;;;;11.71;100.00;101329.09;5054413;28;20753;-61
2021/10/04 06:16:05;;;;;;;7.18;1.55;;;;;;;11.72;100.00;101314.69;5087867;28;20090;-61
2021/10/04 06:18:30;;;;;;;18.25;2.47;;;;;;;11.70;100.00;101312.22;5073832;28;20066;-60
2021/10/04 06:20:56;;;;;;;6.13;2.00;;;;;;;11.77;100.00;101312.28;5078474;28;20041;-60
2021/10/04 06:23:22;;;;;;;9.17;1.73;;;;;;;11.73;100.00;101321.69;5074342;28;20028;-61
2021/10/04 06:25:47;;;;;;;4.40;1.63;;;;;;;11.70;100.00;101322.09;5056476;28;20123;-61
2021/10/04 06:28:13;;;;;;;4.33;1.67;;;;;;;11.76;100.00;101340.91;5073867;28;20059;-61
2021/10/04 06:30:38;;;;;;;4.30;1.40;;;;;;;11.79;100.00;101347.75;5090751;28;20066;-61
2021/10/04 06:33:05;;;;;;;7.63;2.07;;;;;;;11.83;100.00;101349.03;5094253;28;20043;-62
2021/10/04 06:35:31;;;;;;;3.97;2.00;;;;;;;11.90;100.00;101359.81;5092611;28;20273;-61
2021/10/04 06:37:56;;;;;;;7.00;1.70;;;;;;;11.88;100.00;101349.28;5083992;28;20354;-61
2021/10/04 06:40:22;;;;;;;5.07;1.30;;;;;;;11.89;100.00;101350.94;5082568;28;20040;-61
2021/10/04 06:42:48;;;;;;;2.45;1.50;;;;;;;11.88;100.00;101354.63;5084408;28;20537;-62
2021/10/04 06:45:13;;;;;;;6.82;1.58;;;;;;;11.91;100.00;101367.66;5085714;28;20537;-61
2021/10/04 06:47:39;;;;;;;6.07;1.50;;;;;;;11.97;100.00;101357.19;5091367;28;20039;-60
2021/10/04 06:50:06;;;;;;;12.52;1.42;;;;;;;11.97;100.00;101376.78;5082247;28;20032;-60
2021/10/04 06:52:31;;;;;;;6.13;1.90;;;;;;;11.87;100.00;101390.50;5083303;28;20040;-60
2021/10/04 06:54:59;;;;;;;4.13;1.40;;;;;;;11.93;100.00;101374.66;5081447;28;20812;-60
2021/10/04 06:57:24;;;;;;;3.83;1.50;;;;;;;11.85;100.00;101376.47;5081302;28;20036;-62
2021/10/04 06:59:50;;;;;;;6.28;1.52;;;;;;;11.80;100.00;101386.94;5082069;28;20275;-60
2021/10/04 07:02:16;;;;;;;4.13;1.43;;;;;;;11.82;100.00;101382.22;5064830;28;20036;-60
2021/10/04 07:04:41;;;;;;;5.40;1.73;;;;;;;11.88;100.00;101394.84;5081071;28;20264;-61
2021/10/04 07:07:07;;;;;;;4.32;1.40;;;;;;;11.87;100.00;101392.34;5081934;28;20063;-61
2021/10/04 07:09:33;;;;;;;6.75;1.75;;;;;;;11.87;100.00;101395.84;5082792;28;20031;-60
2021/10/04 07:11:59;;;;;;;5.43;1.98;;;;;;;11.86;100.00;101396.88;5085712;28;20039;-61
2021/10/04 07:14:25;;;;;;;7.68;1.83;;;;;;;11.89;100.00;101395.69;5087710;28;20122;-60
2021/10/04 07:16:51;;;;;;;6.35;1.70;;;;;;;11.94;100.00;101387.88;5093227;28;20040;-60
2021/10/04 07:19:16;;;;;;;5.50;1.80;;;;;;;11.84;100.00;101382.84;5092916;28;20048;-60
2021/10/04 07:21:42;;;;;;;8.20;1.42;;;;;;;11.87;100.00;101379.78;5074973;28;20078;-60
2021/10/04 07:24:08;;;;;;;8.45;2.20;;;;;;;11.95;100.00;101380.66;5075431;28;20040;-61
2021/10/04 07:26:34;;;;;;;7.37;1.70;;;;;;;11.89;100.00;101388.44;5092606;28;20472;-61
2021/10/04 07:29:00;;;;;;;7.68;1.60;;;;;;;11.92;100.00;101381.91;5074834;28;20426;-61
2021/10/04 07:31:26;;;;;;;4.78;1.85;;;;;;;11.95;100.00;101394.91;5092680;28;20082;-61
2021/10/04 07:33:52;;;;;;;7.32;1.75;;;;;;;11.96;100.00;101398.41;5093077;28;20036;-60
2021/10/04 07:36:17;;;;;;;6.33;1.70;;;;;;;11.92;100.00;101397.97;5092854;28;20032;-61
2021/10/04 07:38:43;;;;;;;4.63;1.35;;;;;;;11.97;100.00;101405.41;5093298;28;20373;-61
2021/10/04 07:41:08;;;;;;;5.70;1.60;;;;;;;12.01;100.00;101404.88;5075071;28;20040;-60
2021/10/04 07:43:34;;;;;;;5.40;1.50;;;;;;;12.03;100.00;101407.41;5092700;28;20264;-62
2021/10/04 07:46:04;;;;;;;8.48;1.60;;;;;;;12.06;100.00;101407.00;5092609;28;20106;-61
2021/10/04 07:48:30;;;;;;;12.20;2.30;;;;;;;12.15;100.00;101399.66;5092466;28;20096;-59
2021/10/04 07:50:56;;;;;;;4.85;1.35;;;;;;;12.29;100.00;101400.63;5074943;28;20308;-60
2021/10/04 07:53:21;;;;;;;4.53;1.55;;;;;;;12.34;100.00;101406.22;5092979;28;20472;-60
2021/10/04 07:55:47;;;;;;;4.43;1.33;;;;;;;12.43;100.00;101405.06;5069303;28;20065;-60
2021/10/04 07:58:12;;;;;;;8.73;1.67;;;;;;;12.48;100.00;101396.44;5092613;28;20036;-61
2021/10/04 08:00:38;;;;;;;3.77;1.10;;;;;;;12.60;100.00;101405.63;5092976;28;20367;-60
2021/10/04 08:03:04;;;;;;;11.63;1.77;;;;;;;12.75;100.00;101405.50;5074455;28;20150;-61
2021/10/04 08:05:30;;;;;;;9.00;1.80;;;;;;;12.70;100.00;101424.06;5092522;28;20047;-60
2021/10/04 08:07:55;;;;;;;5.17;1.47;;;;;;;12.86;100.00;101409.50;5092683;28;20048;-61
2021/10/04 08:10:21;;;;;;;9.27;1.30;;;;;;;12.93;100.00;101408.72;5092612;28;20325;-62
2021/10/04 08:12:47;;;;;;;8.18;1.17;;;;;;;13.05;100.00;101399.91;5092858;28;20066;-60
2021/10/04 08:15:15;;;;;;;4.35;1.35;;;;;;;13.15;100.00;101409.47;5093035;28;20032;-60
2021/10/04 08:17:41;;;;;;;3.30;1.27;;;;;;;13.27;100.00;101418.59;5088722;28;20074;-62
2021/10/04 08:20:08;;;;;;;11.68;1.52;;;;;;;13.45;100.00;101409.22;5066663;28;20273;-61
2021/10/04 08:22:36;;;;;;;3.20;1.23;;;;;;;13.53;100.00;101408.22;5076414;28;20452;-59
2021/10/04 08:25:03;;;;;;;5.13;1.30;;;;;;;13.77;100.00;101394.22;5093070;28;20785;-60
2021/10/04 08:27:29;;;;;;;6.83;1.83;;;;;;;13.96;100.00;101399.03;5072168;28;20748;-60
2021/10/04 08:29:55;;;;;;;4.30;1.75;;;;;;;14.21;100.00;101412.72;5062916;28;20271;-61
2021/10/04 08:32:20;;;;;;;7.65;1.20;;;;;;;14.61;100.00;101393.03;5082710;28;20527;-60
2021/10/04 08:34:46;;;;;;;5.68;1.77;;;;;;;14.86;100.00;101400.50;5079626;28;20036;-61
2021/10/04 08:37:11;;;;;;;9.95;1.42;;;;;;;15.11;100.00;101415.97;5030438;28;20540;-60
2021/10/04 08:39:37;;;;;;;7.13;1.30;;;;;;;15.36;100.00;101399.09;5081242;28;20044;-60
2021/10/04 08:42:02;;;;;;;5.75;1.25;;;;;;;15.70;100.00;101402.47;5081072;28;20036;-59
2021/10/04 08:44:28;;;;;;;4.75;1.63;;;;;;;15.98;100.00;101393.19;5082887;28;20040;-60
2021/10/04 08:46:54;;;;;;;6.35;1.52;;;;;;;16.60;100.00;101392.47;5081686;28;20044;-60
2021/10/04 08:49:19;;;;;;;5.13;1.58;;;;;;;16.40;100.00;101396.19;5080443;28;20362;-60
2021/10/04 08:51:48;;;;;;;6.22;1.17;;;;;;;16.82;100.00;101397.44;5044997;28;20048;-60
2021/10/04 08:54:14;;;;;;;5.40;1.27;;;;;;;16.88;100.00;101404.69;5055595;28;20142;-60
2021/10/04 08:56:40;;;;;;;2.47;0.80;;;;;;;17.08;100.00;101403.69;5080240;28;20370;-59
2021/10/04 08:59:06;;;;;;;7.80;1.60;;;;;;;17.37;100.00;101420.16;5081713;28;20108;-60
2021/10/04 09:01:31;;;;;;;5.68;1.70;;;;;;;17.45;100.00;101406.34;5080951;28;20040;-63
2021/10/04 09:04:00;;;;;;;5.85;1.02;;;;;;;17.64;100.00;101401.69;5081837;28;20068;-60
2021/10/04 09:06:27;;;;;;;4.53;1.23;;;;;;;18.04;100.00;101413.88;5089393;28;20111;-60
2021/10/04 09:08:54;;;;;;;5.13;1.17;;;;;;;18.70;100.00;101404.88;5091533;28;20031;-60
2021/10/04 09:11:43;;;;;;;5.87;1.03;;;;;;;18.66;100.00;101399.09;5076950;28;20051;-61
2021/10/04 09:14:28;;;;;;;4.27;1.20;;;;;;;18.79;100.00;101408.88;5095405;28;20032;-64
2021/10/04 09:17:03;;;;;;;6.13;1.30;;;;;;;18.81;100.00;101405.94;5095198;28;20399;-61
2021/10/04 09:19:32;;;;;;;5.47;1.47;;;;;;;18.68;100.00;101415.13;5096151;28;20040;-60
2021/10/04 09:22:10;;;;;;;3.80;1.03;;;;;;;19.13;100.00;101409.09;5095547;28;20063;-61
2021/10/04 09:24:49;;;;;;;3.87;1.27;;;;;;;19.45;100.00;101411.34;5090181;28;20487;-61
2021/10/04 09:27:31;;;;;;;5.43;1.13;;;;;;;19.84;100.00;101413.44;5095157;28;20391;-60
2021/10/04 09:29:58;;;;;;;5.80;1.40;;;;;;;20.26;100.00;101406.00;5077141;28;20470;-61
2021/10/04 09:32:48;;;;;;;5.97;1.90;;;;;;;19.80;100.00;101406.84;5085329;28;20441;-60
2021/10/04 09:35:26;;;;;;;4.93;1.20;;;;;;;19.86;100.00;101422.16;5082435;28;20037;-59
2021/10/04 09:37:58;;;;;;;4.33;1.23;;;;;;;20.33;100.00;101406.69;5083985;28;20044;-59
2021/10/04 09:40:30;;;;;;;4.10;1.07;;;;;;;19.97;100.00;101401.50;5084727;28;20028;-59
2021/10/04 09:42:57;;;;;;;4.77;1.20;;;;;;;19.99;100.00;101439.22;5083320;28;20032;-59
2021/10/04 09:45:23;;;;;;;7.97;1.53;;;;;;;20.05;100.00;101394.81;5085233;28;20115;-59
2021/10/04 09:47:50;;;;;;;4.18;1.23;;;;;;;20.08;100.00;101418.78;5083622;28;20182;-61
2021/10/04 09:50:23;;;;;;;8.80;1.23;;;;;;;20.62;100.00;101395.72;5082473;28;20036;-61
2021/10/04 09:52:51;;;;;;;4.20;1.37;;;;;;;20.90;100.00;101405.66;5082785;28;20047;-61
2021/10/04 09:55:18;;;;;;;4.07;1.10;;;;;;;20.67;100.00;101412.06;5066600;28;20066;-61
2021/10/04 09:58:28;;;;;;;5.17;1.40;;;;;;;21.32;100.00;101409.69;5082663;28;20029;-61
2021/10/04 10:00:55;;;;;;;4.43;0.87;;;;;;;21.80;100.00;101409.13;5086391;28;20052;-61
2021/10/04 10:03:23;;;;;;;7.63;1.33;;;;;;;22.09;98.69;101406.13;5085176;28;20042;-61
2021/10/04 10:05:56;;;;;;;4.17;1.20;;;;;;;22.74;82.03;101400.59;5084487;28;20085;-60
2021/10/04 10:08:24;;;;;;;5.97;1.10;;;;;;;22.49;85.63;101421.19;5084726;28;20139;-60
2021/10/04 10:10:52;;;;;;;8.13;1.90;;;;;;;22.89;84.97;101429.84;5081578;28;20111;-60
2021/10/04 10:13:21;;;;;;;7.83;1.70;;;;;;;22.48;83.60;101437.78;5083131;28;20047;-60
2021/10/04 10:15:56;;;;;;;6.53;1.60;;;;;;;22.95;77.83;101428.00;5082960;28;20133;-59
2021/10/04 10:18:28;;;;;;;3.47;0.97;;;;;;;22.61;82.07;101412.81;5070779;28;20404;-60
2021/10/04 10:21:06;;;;;;;5.30;1.77;;;;;;;23.27;75.36;101424.31;5066308;28;20083;-61
2021/10/04 10:23:47;;;;;;;7.57;1.20;;;;;;;24.18;72.78;101420.44;5049987;28;20036;-60
2021/10/04 10:26:36;;;;;;;3.07;1.10;;;;;;;24.16;65.68;101437.09;5082056;28;20040;-59
2021/10/04 10:29:13;;;;;;;9.80;1.20;;;;;;;23.50;65.24;101422.22;5082895;28;20044;-60
2021/10/04 10:31:51;;;;;;;6.47;1.15;;;;;;;23.55;67.90;101416.78;5083253;28;20178;-59
2021/10/04 10:34:35;;;;;;;7.03;1.47;;;;;;;23.84;67.50;101415.44;5081969;28;20036;-61
2021/10/04 10:37:23;;;;;;;6.50;1.50;;;;;;;24.24;63.45;101413.88;5066245;28;20035;-60
2021/10/04 10:40:12;;;;;;;2.67;0.90;;;;;;;24.02;61.99;101425.09;5063658;28;20469;-60
2021/10/04 10:42:59;;;;;;;7.73;1.20;;;;;;;23.70;63.61;101418.72;5080064;28;20051;-60
2021/10/04 10:45:24;;;;;;;;;;;;;;;24.31;60.62;101430.00;5084130;28;20028;-60
2021/10/04 10:47:51;;;;;;;7.10;1.47;;;;;;;24.45;61.96;101422.88;5082913;28;19922;-60
2021/10/04 10:50:23;;;;;;;9.07;1.47;;;;;;;24.68;57.85;101428.84;5082242;28;20040;-60
2021/10/04 10:52:57;;;;;;;8.23;1.70;;;;;;;24.76;57.73;101439.25;5080901;28;20032;-60
2021/10/04 10:55:23;;;;;;;5.67;1.70;;;;;;;24.38;57.29;101424.25;5081241;28;20043;-60
2021/10/04 10:57:57;;;;;;;;;;;;;;;25.25;53.62;101423.19;5080769;28;20422;-59
2021/10/04 11:00:32;;;;;;;5.65;1.08;;;;;;;25.00;57.27;101419.47;5082619;28;19958;-59
2021/10/04 11:03:16;;;;;;;7.00;1.55;;;;;;;25.55;51.65;101418.69;5081426;28;20086;-60
2021/10/04 11:05:41;;;;;;;5.18;1.13;;;;;;;24.80;52.87;101458.66;5081927;28;20472;-57
2021/10/04 11:08:17;;;;;;;;;;;;;;;24.63;51.69;101437.88;5045014;28;20032;-57
2021/10/04 11:10:49;;;;;;;7.47;1.67;;;;;;;24.92;53.54;101441.94;5069949;28;19916;-59
2021/10/04 11:13:28;;;;;;;7.87;1.20;;;;;;;25.03;53.24;101429.06;5072336;28;20048;-59
2021/10/04 11:15:57;;;;;;;10.00;1.95;;;;;;;25.23;52.38;101419.09;5073099;28;20108;-60
2021/10/04 11:18:23;;;;;;;8.30;1.50;;;;;;;24.89;51.39;101424.16;5076905;28;20473;-60
2021/10/04 11:21:01;;;;;;;6.97;1.50;;;;;;;25.69;49.69;101426.28;5084034;28;20048;-60